CCA1437 ZBAA-ZUCK
Flight info
| Callsign | CCA1437 |
|---|---|
| Flight time | N/A |
| Altitude | 34100 |
| Route | BOTPU7X BOTPU W47 LOVRA W276 AVDIG W666 VINEX VINXD2 |
| Aircraft | A320/M-SDE3FGHIRWY/LB1 |
Departure
| Time | 2026-05-07 13:32 |
|---|---|
| Airport | Beijing Capital International Airport (ZBAA) |
Arrival
| Time | N/A |
|---|---|
| Airport | Chongqing Jiangbei International Airport (ZUCK) |
| Time | Latitude | Longitude | Altitude | Speed | Heading |
|---|---|---|---|---|---|
| 2026-05-07 12:50 | 40.05486 | 116.60700 | 124 ft | 0 kts | 120° |
| 2026-05-07 13:16 | 40.05488 | 116.60694 | 118 ft | 4 kts | 120° |
| 2026-05-07 13:16 | 40.05503 | 116.60664 | 120 ft | 4 kts | 123° |
| 2026-05-07 13:16 | 40.05518 | 116.60635 | 120 ft | 4 kts | 129° |
| 2026-05-07 13:17 | 40.05536 | 116.60610 | 124 ft | 4 kts | 146° |
| 2026-05-07 13:17 | 40.05557 | 116.60600 | 120 ft | 3 kts | 200° |
| 2026-05-07 13:17 | 40.05560 | 116.60601 | 119 ft | 0 kts | 204° |
| 2026-05-07 13:22 | 40.05559 | 116.60600 | 119 ft | 1 kts | 204° |
| 2026-05-07 13:22 | 40.05535 | 116.60585 | 123 ft | 7 kts | 206° |
| 2026-05-07 13:22 | 40.05497 | 116.60553 | 124 ft | 6 kts | 217° |
| 2026-05-07 13:23 | 40.05454 | 116.60492 | 122 ft | 15 kts | 233° |
| 2026-05-07 13:23 | 40.05403 | 116.60403 | 122 ft | 10 kts | 234° |
| 2026-05-07 13:23 | 40.05400 | 116.60332 | 122 ft | 7 kts | 301° |
| 2026-05-07 13:23 | 40.05433 | 116.60295 | 120 ft | 6 kts | 321° |
| 2026-05-07 13:24 | 40.05505 | 116.60256 | 121 ft | 14 kts | 353° |
| 2026-05-07 13:24 | 40.05546 | 116.60207 | 119 ft | 7 kts | 271° |
| 2026-05-07 13:24 | 40.05545 | 116.60196 | 119 ft | 0 kts | 263° |
| 2026-05-07 13:25 | 40.05543 | 116.60175 | 124 ft | 4 kts | 263° |
| 2026-05-07 13:25 | 40.05542 | 116.60162 | 120 ft | 0 kts | 263° |
| 2026-05-07 13:30 | 40.05539 | 116.60132 | 122 ft | 6 kts | 264° |
| 2026-05-07 13:30 | 40.05563 | 116.60061 | 121 ft | 10 kts | 306° |
| 2026-05-07 13:31 | 40.05608 | 116.60006 | 122 ft | 8 kts | 343° |
| 2026-05-07 13:31 | 40.05674 | 116.59996 | 121 ft | 18 kts | 353° |
| 2026-05-07 13:31 | 40.06036 | 116.59938 | 121 ft | 87 kts | 353° |
| 2026-05-07 13:31 | 40.06833 | 116.59814 | 121 ft | 141 kts | 353° |
| 2026-05-07 13:32 | 40.07954 | 116.59620 | 208 ft | 176 kts | 352° |
| 2026-05-07 13:32 | 40.09136 | 116.59439 | 954 ft | 170 kts | 352° |
| 2026-05-07 13:32 | 40.10321 | 116.59258 | 1557 ft | 177 kts | 352° |
| 2026-05-07 13:32 | 40.11617 | 116.59051 | 1873 ft | 198 kts | 352° |
| 2026-05-07 13:33 | 40.13058 | 116.58822 | 2172 ft | 218 kts | 352° |
| 2026-05-07 13:33 | 40.14606 | 116.58580 | 2662 ft | 232 kts | 352° |
| 2026-05-07 13:33 | 40.16213 | 116.58332 | 3448 ft | 233 kts | 352° |
| 2026-05-07 13:33 | 40.17826 | 116.58080 | 4243 ft | 234 kts | 352° |
| 2026-05-07 13:34 | 40.19447 | 116.57826 | 5035 ft | 235 kts | 352° |
| 2026-05-07 13:34 | 40.22892 | 116.57280 | 6267 ft | 259 kts | 352° |
| 2026-05-07 13:34 | 40.24653 | 116.56722 | 7054 ft | 262 kts | 338° |
| 2026-05-07 13:35 | 40.26244 | 116.55548 | 7873 ft | 264 kts | 322° |
| 2026-05-07 13:35 | 40.27632 | 116.53958 | 8720 ft | 266 kts | 319° |
| 2026-05-07 13:35 | 40.28992 | 116.52367 | 9537 ft | 268 kts | 319° |
| 2026-05-07 13:35 | 40.30331 | 116.50645 | 10322 ft | 271 kts | 309° |
| 2026-05-07 13:36 | 40.31270 | 116.48484 | 11064 ft | 277 kts | 293° |
| 2026-05-07 13:36 | 40.31691 | 116.45925 | 11407 ft | 302 kts | 276° |
| 2026-05-07 13:36 | 40.31710 | 116.43060 | 11586 ft | 326 kts | 273° |
| 2026-05-07 13:36 | 40.31706 | 116.39986 | 11719 ft | 348 kts | 273° |
| 2026-05-07 13:37 | 40.31695 | 116.36736 | 12016 ft | 363 kts | 273° |
| 2026-05-07 13:37 | 40.31682 | 116.33407 | 12621 ft | 368 kts | 273° |
| 2026-05-07 13:37 | 40.31669 | 116.30086 | 13265 ft | 370 kts | 273° |
| 2026-05-07 13:37 | 40.31656 | 116.26701 | 13905 ft | 373 kts | 274° |
| 2026-05-07 13:38 | 40.31646 | 116.23283 | 14467 ft | 376 kts | 274° |
| 2026-05-07 13:38 | 40.31641 | 116.19841 | 15013 ft | 379 kts | 274° |
| 2026-05-07 13:38 | 40.31640 | 116.16372 | 15541 ft | 382 kts | 274° |
| 2026-05-07 13:38 | 40.31641 | 116.12882 | 16085 ft | 384 kts | 274° |
| 2026-05-07 13:39 | 40.31637 | 116.09367 | 16632 ft | 387 kts | 274° |
| 2026-05-07 13:39 | 40.31468 | 116.05896 | 17754 ft | 375 kts | 265° |
| 2026-05-07 13:39 | 40.30853 | 116.02544 | 18330 ft | 386 kts | 256° |
| 2026-05-07 13:39 | 40.29735 | 115.99276 | 18632 ft | 401 kts | 245° |
| 2026-05-07 13:40 | 40.28234 | 115.96208 | 18939 ft | 410 kts | 242° |
| 2026-05-07 13:40 | 40.26536 | 115.93177 | 19318 ft | 417 kts | 237° |
| 2026-05-07 13:40 | 40.24815 | 115.90027 | 19256 ft | 429 kts | 242° |
| 2026-05-07 13:40 | 40.23227 | 115.86769 | 20060 ft | 420 kts | 243° |
| 2026-05-07 13:41 | 40.21636 | 115.83596 | 20885 ft | 413 kts | 242° |
| 2026-05-07 13:41 | 40.20031 | 115.80539 | 21853 ft | 401 kts | 241° |
| 2026-05-07 13:41 | 40.18398 | 115.77673 | 22962 ft | 389 kts | 240° |
| 2026-05-07 13:41 | 40.16786 | 115.74835 | 23511 ft | 389 kts | 242° |
| 2026-05-07 13:42 | 40.15210 | 115.71975 | 24066 ft | 384 kts | 243° |
| 2026-05-07 13:42 | 40.13681 | 115.69179 | 24754 ft | 373 kts | 243° |
| 2026-05-07 13:42 | 40.12200 | 115.66459 | 25317 ft | 370 kts | 243° |
| 2026-05-07 13:42 | 40.10630 | 115.63844 | 26164 ft | 361 kts | 242° |
| 2026-05-07 13:43 | 40.09080 | 115.61307 | 26844 ft | 353 kts | 242° |
| 2026-05-07 13:43 | 40.07528 | 115.58833 | 27294 ft | 360 kts | 236° |
| 2026-05-07 13:43 | 40.05759 | 115.56442 | 27464 ft | 370 kts | 237° |
| 2026-05-07 13:43 | 40.04017 | 115.53926 | 27676 ft | 376 kts | 239° |
| 2026-05-07 13:44 | 40.02334 | 115.51296 | 27950 ft | 380 kts | 242° |
| 2026-05-07 13:44 | 40.00789 | 115.48504 | 28255 ft | 373 kts | 254° |
| 2026-05-07 13:44 | 39.99841 | 115.45437 | 28681 ft | 363 kts | 258° |
| 2026-05-07 13:44 | 39.98896 | 115.42423 | 29129 ft | 361 kts | 262° |
| 2026-05-07 13:45 | 39.98302 | 115.39310 | 29683 ft | 348 kts | 269° |
| 2026-05-07 13:45 | 39.97897 | 115.36278 | 30557 ft | 331 kts | 271° |
| 2026-05-07 13:45 | 39.97559 | 115.33358 | 31226 ft | 321 kts | 271° |
| 2026-05-07 13:45 | 39.97264 | 115.30469 | 31401 ft | 323 kts | 274° |
| 2026-05-07 13:46 | 39.97105 | 115.27533 | 31505 ft | 326 kts | 277° |
| 2026-05-07 13:46 | 39.97091 | 115.24561 | 31664 ft | 329 kts | 280° |
| 2026-05-07 13:46 | 39.97219 | 115.21578 | 31837 ft | 331 kts | 282° |
| 2026-05-07 13:46 | 39.97486 | 115.18608 | 32094 ft | 330 kts | 285° |
| 2026-05-07 13:47 | 39.97921 | 115.15711 | 32374 ft | 329 kts | 289° |
| 2026-05-07 13:47 | 39.98518 | 115.12834 | 32635 ft | 330 kts | 289° |
| 2026-05-07 13:47 | 39.98787 | 115.09814 | 32764 ft | 341 kts | 278° |
| 2026-05-07 13:47 | 39.99050 | 115.06758 | 32892 ft | 338 kts | 288° |
| 2026-05-07 13:48 | 39.99643 | 115.03779 | 33025 ft | 342 kts | 289° |
| 2026-05-07 13:48 | 40.00259 | 115.00755 | 33145 ft | 348 kts | 289° |
| 2026-05-07 13:48 | 40.00887 | 114.97687 | 33271 ft | 353 kts | 289° |
| 2026-05-07 13:48 | 40.01396 | 114.94521 | 33406 ft | 361 kts | 283° |
| 2026-05-07 13:49 | 40.01670 | 114.91241 | 33541 ft | 368 kts | 279° |
| 2026-05-07 13:49 | 40.01805 | 114.87928 | 33675 ft | 373 kts | 277° |
| 2026-05-07 13:49 | 40.01879 | 114.84688 | 33806 ft | 377 kts | 277° |
| 2026-05-07 13:51 | 40.01916 | 114.82795 | 33889 ft | 379 kts | 277° |